Aviation Digital Data Service (ADDS)

Output produced by METARs form (0242 UTC 22 July 2017)
found at http://www.aviationweather.gov/adds/metars/
 
EVLA 220220Z AUTO 00000KT 9999 NCD 09/08 Q1018
TAF EVLA 220201Z 2203/2303 05005KT CAVOK
       
EVRA 220220Z 00000KT CAVOK 08/08 Q1017 NOSIG
TAF EVRA 220203Z 2203/2303 36005KT CAVOK 
     TEMPO 2300/2303 3000 BR
       
EVVA 220220Z AUTO 00000KT 4300 NSC 07/07 Q1019